航空気象通報

ウインドサーファーのための航空気象通報による風予報です。

10/18-10/20の航空気象通報

2016年10月18日 23時23分35秒 | TAF

羽田空港
TAF RJTT 181105Z 1812/1918 03010KT 9999 FEW020 BKN040
BECMG 1903/1906 10010KT
日本時間18日21時-19日12時:030度から10ノットの風
12-15時:風が変化
15時-20日03時:100度から10ノットの風

静岡空港
TAF RJNS 181105Z 1812/1918 34004KT 9999 FEW015 SCT030
BECMG 1900/1903 16010KT
BECMG 1909/1912 28006KT
日本時間18日21時-19日09時:340度から4ノットの風
09-12時:風が変化
12-18時:160度から10ノットの風
18-21時:風が変化
21時-20日03時:280度から6ノットの風

福岡空港
TAF RJFF 181107Z 1812/1918 03005KT 9999 FEW020 BKN030
BECMG 1813/1815 14003KT
BECMG 1822/1824 35010KT
BECMG 1912/1915 14003KT
日本時間18日21-22時:030度から5ノットの風
22-24時:風が変化
19日00-07時:140度から3ノットの風
07-09時:風が変化
09-21時:350度から10ノットの風
21-24時:風が変化
20日00-03時:140度から3ノットの風

那覇空港
TAF ROAH 181106Z 1812/1918 08009KT 9999 FEW015 SCT025
日本時間18日21時-20日03時:080度から9ノットの風

石垣空港
TAF ROIG 181109Z 1812/1918 06015KT 9999 SCT010
TEMPO 1909/1912 4000 SHRA FEW007 BKN010 FEW025CB
日本時間18日21時-20日03時:060度から15ノットの風

但し、19日18-21時の間:ときどき

マウイのカフルイ空港
PHOG 181133Z 1812/1912 05011G16KT P6SM VCSH SCT030 BKN050
FM182000 05015G25KT P6SM FEW030 BKN050
FM190600 05011KT P6SM SCT030 SCT050 AMD LTD TO VIS AND WIND TIL 181600
ハワイ時間18日02-10時:050度から11ノット、突風16ノット
10-20時:050度から15ノット、突風25ノット

20時-19日02時:050度から11ノットの風

サイパン空港
TAF PGSN 181120Z 1812/1912 03006KT P6SM VCSH FEW017 SCT040 BKN110
マリアナ時間18日22時-19日22時:030度から6ノットの風

ジャンル:
お天気
コメント   この記事についてブログを書く
この記事をはてなブックマークに追加
« 10/17-10/19の航空気象通報 | トップ | 10/19-10/21の航空気象通報 »
最近の画像もっと見る

コメントを投稿

ブログ作成者から承認されるまでコメントは反映されません。

コメント利用規約に同意の上コメント投稿を行ってください。

数字4桁を入力し、投稿ボタンを押してください。

あわせて読む

トラックバック

この記事のトラックバック  Ping-URL
ブログ作成者から承認されるまでトラックバックは反映されません。
  • 30日以上前の記事に対するトラックバックは受け取らないよう設定されております。
  • 送信元の記事内容が半角英数のみのトラックバックは受け取らないよう設定されております。
  • このブログへのリンクがない記事からのトラックバックは受け取らないよう設定されております。
  • ※ブログ管理者のみ、編集画面で設定の変更が可能です。